createdAt,value
2023-04-16T00:02:19.141Z,99975.50
2023-04-16T00:05:22.240Z,99981.66
2023-04-16T00:08:24.744Z,99981.41
2023-04-16T00:11:27.641Z,99979.56
2023-04-16T00:14:30.120Z,99976.94
2023-04-16T00:17:33.037Z,99984.13
2023-04-16T00:20:35.311Z,99978.37
2023-04-16T00:23:38.240Z,99980.75
2023-04-16T00:26:41.048Z,99978.84
2023-04-16T00:29:43.976Z,99978.66
2023-04-16T00:32:46.355Z,99981.06
2023-04-16T00:35:49.268Z,99988.81
2023-04-16T00:38:51.734Z,99984.47
2023-04-16T00:41:54.773Z,99980.03
2023-04-16T00:44:57.096Z,99998.41
2023-04-16T00:48:00.811Z,99986.28
2023-04-16T00:51:07.119Z,99987.78
2023-04-16T00:54:10.083Z,99986.94
2023-04-16T00:57:13.439Z,99988.63
2023-04-16T01:00:17.119Z,99978.16
2023-04-16T01:03:19.489Z,99978.78
2023-04-16T01:06:23.489Z,99979.63
2023-04-16T01:09:25.873Z,99983.06
2023-04-16T01:12:28.763Z,99994.56
2023-04-16T01:15:31.066Z,100003.75
2023-04-16T01:18:34.521Z,99999.84
2023-04-16T01:21:37.014Z,99996.06
2023-04-16T01:24:40.590Z,100000.37
2023-04-16T01:27:45.506Z,99999.25
2023-04-16T01:30:48.619Z,99990.69
2023-04-16T01:33:51.913Z,100000.09
2023-04-16T01:36:54.985Z,99997.34
2023-04-16T01:39:57.260Z,99996.53
2023-04-16T01:43:00.508Z,99998.16
2023-04-16T01:46:29.394Z,99999.81
2023-04-16T01:49:32.648Z,100003.09
2023-04-16T01:52:35.041Z,99999.50
2023-04-16T01:55:37.978Z,100003.94
2023-04-16T01:58:41.413Z,99996.03
2023-04-16T02:01:44.506Z,100001.16
2023-04-16T02:04:47.223Z,100001.16
2023-04-16T02:07:49.847Z,99996.91
2023-04-16T02:10:52.520Z,99994.03
2023-04-16T02:13:55.316Z,100001.75
2023-04-16T02:16:58.272Z,100011.38
2023-04-16T02:20:05.670Z,100014.03
2023-04-16T02:23:08.920Z,100014.84
2023-04-16T02:26:13.567Z,100020.81
2023-04-16T02:29:16.778Z,100029.50
2023-04-16T02:32:19.826Z,100013.78
2023-04-16T02:35:22.729Z,100014.63
2023-04-16T02:38:25.711Z,100020.75
2023-04-16T02:41:28.314Z,100027.84
2023-04-16T02:44:30.957Z,100023.50
2023-04-16T02:47:33.583Z,100017.09
2023-04-16T02:50:36.247Z,100019.50
2023-04-16T02:53:38.871Z,100018.62
2023-04-16T02:56:41.616Z,100017.72
2023-04-16T02:59:44.164Z,100015.09
2023-04-16T03:02:46.828Z,100012.53
2023-04-16T03:05:49.680Z,100014.50
2023-04-16T03:08:52.252Z,100020.37
2023-04-16T03:11:54.836Z,100020.44
2023-04-16T03:14:57.705Z,100023.81
2023-04-16T03:18:00.630Z,100027.88
2023-04-16T03:21:03.851Z,100024.38
2023-04-16T03:24:07.464Z,100023.37
2023-04-16T03:27:10.070Z,100029.25
2023-04-16T03:30:13.888Z,100035.31
2023-04-16T03:33:16.710Z,100046.16
2023-04-16T03:36:19.474Z,100047.56
2023-04-16T03:39:22.878Z,100055.16
2023-04-16T03:42:25.834Z,100068.16
2023-04-16T03:45:28.616Z,100063.25
2023-04-16T03:48:31.314Z,100070.28
2023-04-16T03:51:34.820Z,100075.53
2023-04-16T03:54:37.419Z,100076.44
2023-04-16T03:57:41.707Z,100074.47
2023-04-16T04:00:45.387Z,100080.63
2023-04-16T04:03:48.731Z,100087.22
2023-04-16T04:06:51.479Z,100080.97
2023-04-16T04:09:54.538Z,100084.56
2023-04-16T04:12:57.161Z,100087.03
2023-04-16T04:16:00.349Z,100081.72
2023-04-16T04:19:03.068Z,100089.59
2023-04-16T04:22:05.943Z,100086.78
2023-04-16T04:25:09.950Z,100082.69
2023-04-16T04:28:12.789Z,100092.88
2023-04-16T04:31:15.474Z,100093.12
2023-04-16T04:34:19.201Z,100098.34
2023-04-16T04:37:21.498Z,100106.34
2023-04-16T04:40:24.378Z,100115.06
2023-04-16T04:43:28.159Z,100109.13
2023-04-16T04:46:31.121Z,100102.31
2023-04-16T04:49:33.502Z,100103.84
2023-04-16T04:52:36.453Z,100104.06
2023-04-16T04:55:39.326Z,100115.75
2023-04-16T04:58:42.491Z,100108.00
2023-04-16T05:01:44.889Z,100114.03
2023-04-16T05:04:47.755Z,100113.28
2023-04-16T05:07:50.265Z,100125.56
2023-04-16T05:10:53.156Z,100121.28
2023-04-16T05:13:55.462Z,100122.28
2023-04-16T05:16:58.400Z,100116.44
2023-04-16T05:20:00.837Z,100111.22
2023-04-16T05:23:03.697Z,100108.50
2023-04-16T05:26:05.962Z,100109.34
2023-04-16T05:29:08.980Z,100110.22
2023-04-16T05:32:11.502Z,100117.75
2023-04-16T05:35:17.210Z,100124.87
2023-04-16T05:38:19.850Z,100137.22
2023-04-16T05:41:22.706Z,100140.03
2023-04-16T05:44:25.831Z,100135.91
2023-04-16T05:47:28.692Z,100144.66
2023-04-16T05:50:31.150Z,100146.56
2023-04-16T05:53:34.073Z,100146.63
2023-04-16T05:56:36.324Z,100156.50
2023-04-16T05:59:39.228Z,100152.97
2023-04-16T06:02:41.881Z,100156.63
2023-04-16T06:05:45.966Z,100165.44
2023-04-16T06:08:48.240Z,100166.53
2023-04-16T06:11:51.150Z,100161.19
2023-04-16T06:14:53.631Z,100162.19
2023-04-16T06:17:56.972Z,100165.81
2023-04-16T06:21:00.441Z,100160.66
2023-04-16T06:24:03.395Z,100165.94
2023-04-16T06:27:05.652Z,100167.31
2023-04-16T06:30:13.130Z,100160.50
2023-04-16T06:33:15.489Z,100160.94
2023-04-16T06:36:18.420Z,100160.62
2023-04-16T06:39:21.861Z,100160.84
2023-04-16T06:42:24.891Z,100155.97
2023-04-16T06:45:27.236Z,100148.97
2023-04-16T06:48:30.496Z,100154.75
2023-04-16T06:51:33.199Z,100158.91
2023-04-16T06:54:36.262Z,100151.69
2023-04-16T06:57:38.605Z,100146.19
2023-04-16T07:00:41.462Z,100147.62
2023-04-16T07:03:44.182Z,100154.41
2023-04-16T07:06:47.119Z,100155.94
2023-04-16T07:09:49.414Z,100156.31
2023-04-16T07:12:52.316Z,100160.25
2023-04-16T07:15:54.720Z,100163.44
2023-04-16T07:18:57.716Z,100163.03
2023-04-16T07:22:00.423Z,100149.66
2023-04-16T07:25:03.481Z,100145.00
2023-04-16T07:28:06.100Z,100150.78
2023-04-16T07:31:09.375Z,100155.72
2023-04-16T07:34:11.748Z,100157.56
2023-04-16T07:37:14.699Z,100161.56
2023-04-16T07:40:17.053Z,100156.88
2023-04-16T07:43:19.914Z,100160.31
2023-04-16T07:46:22.269Z,100150.50
2023-04-16T07:49:25.351Z,100145.75
2023-04-16T07:52:27.682Z,100154.94
2023-04-16T07:55:30.535Z,100154.09
2023-04-16T07:58:32.919Z,100157.69
2023-04-16T08:01:36.005Z,100155.34
2023-04-16T08:04:38.841Z,100145.72
2023-04-16T08:07:41.597Z,100153.44
2023-04-16T08:10:44.445Z,100154.47
2023-04-16T08:13:47.156Z,100152.72
2023-04-16T08:16:49.954Z,100146.13
2023-04-16T08:19:52.573Z,100148.31
2023-04-16T08:22:55.266Z,100145.53
2023-04-16T08:25:58.140Z,100143.66
2023-04-16T08:29:00.868Z,100152.84
2023-04-16T08:32:03.490Z,100159.37
2023-04-16T08:35:06.474Z,100155.81
2023-04-16T08:38:09.117Z,100155.75
2023-04-16T08:41:12.558Z,100161.94
2023-04-16T08:44:20.069Z,100154.91
2023-04-16T08:47:24.197Z,100168.19
2023-04-16T08:50:27.337Z,100161.47
2023-04-16T08:53:35.767Z,100166.06
2023-04-16T08:56:42.878Z,100168.84
2023-04-16T08:59:49.012Z,100171.34
2023-04-16T09:02:52.135Z,100177.56
2023-04-16T09:05:55.658Z,100175.81
2023-04-16T09:08:59.939Z,100174.19
2023-04-16T09:12:02.627Z,100170.03
2023-04-16T09:15:06.123Z,100178.12
2023-04-16T09:18:08.881Z,100172.87
2023-04-16T09:21:11.469Z,100181.47
2023-04-16T09:24:14.448Z,100186.63
2023-04-16T09:27:17.345Z,100191.56
2023-04-16T09:30:24.486Z,100193.91
2023-04-16T09:33:27.026Z,100190.09
2023-04-16T09:36:30.121Z,100191.56
2023-04-16T09:39:32.858Z,100189.47
2023-04-16T09:42:37.065Z,100194.47
2023-04-16T09:45:52.736Z,100197.03
2023-04-16T09:48:55.385Z,100200.28
2023-04-16T09:51:59.962Z,100201.94
2023-04-16T09:55:02.597Z,100201.88
2023-04-16T09:58:05.175Z,100201.06
2023-04-16T10:01:09.066Z,100195.12
2023-04-16T10:04:12.165Z,100189.91
2023-04-16T10:07:14.788Z,100188.53
2023-04-16T10:10:17.720Z,100195.09
2023-04-16T10:13:20.122Z,100193.78
2023-04-16T10:16:23.670Z,100182.94
2023-04-16T10:19:26.987Z,100186.03
2023-04-16T10:22:32.887Z,100177.62
2023-04-16T10:25:35.358Z,100170.94
2023-04-16T10:28:38.437Z,100169.22
2023-04-16T10:31:41.661Z,100158.59
2023-04-16T10:34:44.719Z,100161.03
2023-04-16T10:37:47.540Z,100155.47
2023-04-16T10:40:50.804Z,100158.56
2023-04-16T10:43:53.430Z,100155.59
2023-04-16T10:46:56.355Z,100145.56
2023-04-16T10:49:59.011Z,100141.59
2023-04-16T10:53:17.777Z,100133.59
2023-04-16T10:56:27.615Z,100131.59
2023-04-16T10:59:31.404Z,100127.56
2023-04-16T11:02:34.063Z,100128.94
2023-04-16T11:05:47.065Z,100119.88
2023-04-16T11:08:55.054Z,100119.88
2023-04-16T11:11:58.659Z,100124.84
2023-04-16T11:15:05.968Z,100120.00
2023-04-16T11:18:09.879Z,100121.69
2023-04-16T11:21:12.780Z,100122.63
2023-04-16T11:24:16.276Z,100122.19
2023-04-16T11:27:18.687Z,100121.91
2023-04-16T11:30:39.974Z,100123.03
2023-04-16T11:33:42.764Z,100115.34
2023-04-16T11:36:49.554Z,100122.28
2023-04-16T11:39:52.853Z,100115.16
2023-04-16T11:42:56.213Z,100115.69
2023-04-16T11:46:00.671Z,100120.22
2023-04-16T11:49:03.733Z,100109.72
2023-04-16T11:52:06.256Z,100110.00
2023-04-16T11:55:09.210Z,100122.81
2023-04-16T11:58:12.855Z,100113.31
2023-04-16T12:01:20.030Z,100113.50
2023-04-16T12:04:25.111Z,100110.19
2023-04-16T12:07:27.883Z,100107.78
2023-04-16T12:10:31.195Z,100112.25
2023-04-16T12:13:39.925Z,100111.31
2023-04-16T12:16:42.745Z,100109.59
2023-04-16T12:20:08.423Z,100096.34
2023-04-16T12:23:11.473Z,100102.44
2023-04-16T12:26:14.387Z,100089.00
2023-04-16T12:29:18.013Z,100097.69
2023-04-16T12:32:21.307Z,100093.09
2023-04-16T12:35:33.854Z,100086.16
2023-04-16T12:38:36.654Z,100087.34
2023-04-16T12:41:40.162Z,100087.38
2023-04-16T12:44:42.719Z,100083.78
2023-04-16T12:47:45.543Z,100074.19
2023-04-16T12:50:48.214Z,100077.87
2023-04-16T12:53:51.019Z,100076.16
2023-04-16T12:56:53.544Z,100065.72
2023-04-16T12:59:59.477Z,100063.94
2023-04-16T13:03:02.237Z,100074.44
2023-04-16T13:06:05.043Z,100071.56
2023-04-16T13:09:07.888Z,100064.28
2023-04-16T13:12:10.648Z,100073.75
2023-04-16T13:15:13.238Z,100070.19
2023-04-16T13:18:15.932Z,100059.53
2023-04-16T13:21:18.592Z,100057.81
2023-04-16T13:24:21.350Z,100058.81
2023-04-16T13:27:24.039Z,100051.06
2023-04-16T13:30:29.297Z,100044.09
2023-04-16T13:33:31.976Z,100046.94
2023-04-16T13:36:35.323Z,100048.88
2023-04-16T13:39:37.935Z,100046.44
2023-04-16T13:42:40.707Z,100040.31
2023-04-16T13:45:43.437Z,100037.72
2023-04-16T13:48:49.099Z,100028.94
2023-04-16T13:51:51.727Z,100029.81
2023-04-16T13:54:54.349Z,100030.75
2023-04-16T13:57:57.236Z,100028.97
2023-04-16T14:01:00.429Z,100029.03
2023-04-16T14:04:06.808Z,100026.41
2023-04-16T14:07:09.483Z,100032.59
2023-04-16T14:10:12.458Z,100026.47
2023-04-16T14:13:15.242Z,100029.97
2023-04-16T14:16:18.204Z,100031.75
2023-04-16T14:19:20.525Z,100028.25
2023-04-16T14:22:23.413Z,100038.84
2023-04-16T14:25:26.279Z,100024.75
2023-04-16T14:28:29.221Z,100032.69
2023-04-16T14:31:32.381Z,100024.75
2023-04-16T14:34:35.342Z,100030.06
2023-04-16T14:37:38.459Z,100022.12
2023-04-16T14:40:41.425Z,100016.84
2023-04-16T14:43:44.411Z,100015.94
2023-04-16T14:46:47.258Z,100018.56
2023-04-16T14:49:49.756Z,100011.53
2023-04-16T14:52:54.539Z,100013.31
2023-04-16T14:55:59.001Z,100012.41
2023-04-16T14:59:02.301Z,100009.78
2023-04-16T15:02:04.835Z,100013.22
2023-04-16T15:05:10.555Z,100007.06
2023-04-16T15:08:12.928Z,100013.19
2023-04-16T15:11:15.797Z,100008.78
2023-04-16T15:14:18.243Z,100000.03
2023-04-16T15:17:21.600Z,100007.03
2023-04-16T15:20:24.488Z,100004.38
2023-04-16T15:23:27.735Z,100014.94
2023-04-16T15:26:30.385Z,100009.66
2023-04-16T15:29:33.276Z,100003.50
2023-04-16T15:32:36.550Z,100001.72
2023-04-16T15:35:41.269Z,100006.16
2023-04-16T15:38:43.603Z,100001.78
2023-04-16T15:41:59.880Z,100006.25
2023-04-16T15:45:04.177Z,100005.41
2023-04-16T15:48:07.265Z,100006.25
2023-04-16T15:51:10.664Z,100000.91
2023-04-16T15:54:13.602Z,100007.06
2023-04-16T15:57:15.940Z,100004.41
2023-04-16T16:00:19.170Z,100003.47
2023-04-16T16:03:22.287Z,100009.56
2023-04-16T16:06:25.172Z,100005.19
2023-04-16T16:09:28.042Z,100013.06
2023-04-16T16:12:31.241Z,100010.37
2023-04-16T16:15:34.142Z,100013.81
2023-04-16T16:18:36.974Z,100013.72
2023-04-16T16:21:39.555Z,100019.84
2023-04-16T16:24:42.201Z,100011.94
2023-04-16T16:27:44.900Z,100018.12
2023-04-16T16:30:47.663Z,100021.50
2023-04-16T16:33:50.277Z,100022.31
2023-04-16T16:36:52.808Z,100022.28
2023-04-16T16:39:55.392Z,100017.91
2023-04-16T16:42:58.019Z,100017.88
2023-04-16T16:46:00.793Z,100016.97
2023-04-16T16:49:05.260Z,100016.97
2023-04-16T16:52:07.883Z,100020.47
2023-04-16T16:55:11.158Z,100020.47
2023-04-16T16:58:13.907Z,100027.50
2023-04-16T17:01:16.607Z,100022.28
2023-04-16T17:04:20.511Z,100027.50
2023-04-16T17:07:23.281Z,100028.31
2023-04-16T17:10:26.124Z,100022.25
2023-04-16T17:13:28.958Z,100032.69
2023-04-16T17:16:31.806Z,100039.59
2023-04-16T17:19:34.562Z,100037.00
2023-04-16T17:22:37.901Z,100035.19
2023-04-16T17:25:40.518Z,100036.87
2023-04-16T17:28:43.130Z,100036.97
2023-04-16T17:31:45.752Z,100046.56
2023-04-16T17:34:48.328Z,100038.50
2023-04-16T17:37:51.448Z,100045.50
2023-04-16T17:40:54.173Z,100052.41
2023-04-16T17:43:56.774Z,100052.31
2023-04-16T17:46:59.436Z,100053.94
2023-04-16T17:50:02.396Z,100054.81
2023-04-16T17:53:05.293Z,100052.97
2023-04-16T17:56:08.077Z,100049.44
2023-04-16T17:59:10.683Z,100046.63
2023-04-16T18:02:13.619Z,100059.91
2023-04-16T18:05:16.546Z,100062.50
2023-04-16T18:08:19.131Z,100064.22
2023-04-16T18:11:21.787Z,100071.19
2023-04-16T18:14:25.132Z,100078.94
2023-04-16T18:17:27.888Z,100076.22
2023-04-16T18:20:30.697Z,100089.16
2023-04-16T18:23:33.377Z,100087.47
2023-04-16T18:26:36.305Z,100089.91
2023-04-16T18:29:40.282Z,100088.97
2023-04-16T18:33:00.441Z,100095.09
2023-04-16T18:36:06.628Z,100085.44
2023-04-16T18:39:09.472Z,100076.81
2023-04-16T18:42:12.104Z,100067.09
2023-04-16T18:45:20.947Z,100064.34
2023-04-16T18:48:24.294Z,100058.09
2023-04-16T18:51:27.411Z,100072.81
2023-04-16T18:54:30.068Z,100068.50
2023-04-16T18:57:32.915Z,100063.25
2023-04-16T19:00:35.596Z,100059.75
2023-04-16T19:03:38.683Z,100060.56
2023-04-16T19:06:41.510Z,100060.50
2023-04-16T19:09:44.209Z,100057.84
2023-04-16T19:12:46.814Z,100059.84
2023-04-16T19:15:49.527Z,100059.75
2023-04-16T19:18:52.296Z,100057.28
2023-04-16T19:21:54.892Z,100066.69
2023-04-16T19:24:57.563Z,100072.03
2023-04-16T19:28:00.217Z,100075.34
2023-04-16T19:31:02.902Z,100067.50
2023-04-16T19:34:05.698Z,100059.66
2023-04-16T19:37:08.487Z,100061.44
2023-04-16T19:40:11.347Z,100064.94
2023-04-16T19:43:14.049Z,100071.72
2023-04-16T19:46:16.790Z,100055.84
2023-04-16T19:49:19.526Z,100055.03
2023-04-16T19:52:22.170Z,100057.63
2023-04-16T19:55:24.860Z,100056.63
2023-04-16T19:58:27.488Z,100061.75
2023-04-16T20:01:32.834Z,100055.59
2023-04-16T20:04:36.036Z,100057.28
2023-04-16T20:07:38.486Z,100054.63
2023-04-16T20:10:41.596Z,100056.34
2023-04-16T20:13:48.085Z,100045.84
2023-04-16T20:16:52.102Z,100052.75
2023-04-16T20:19:58.197Z,100042.25
2023-04-16T20:23:01.208Z,100048.38
2023-04-16T20:26:05.513Z,100046.53
2023-04-16T20:29:11.999Z,100050.03
2023-04-16T20:32:15.430Z,100047.41
2023-04-16T20:35:18.434Z,100053.53
2023-04-16T20:38:23.872Z,100050.87
2023-04-16T20:41:27.412Z,100049.31
2023-04-16T20:44:40.543Z,100044.91
2023-04-16T20:47:43.747Z,100051.88
2023-04-16T20:50:47.602Z,100047.44
2023-04-16T20:53:52.168Z,100041.31
2023-04-16T20:56:59.783Z,100037.81
2023-04-16T21:00:04.428Z,100041.38
2023-04-16T21:03:07.088Z,100038.69
2023-04-16T21:06:12.885Z,100033.44
2023-04-16T21:09:16.669Z,100044.16
2023-04-16T21:12:19.576Z,100046.59
2023-04-16T21:15:21.950Z,100042.16
2023-04-16T21:18:27.233Z,100042.16
2023-04-16T21:21:29.786Z,100049.06
2023-04-16T21:24:32.689Z,100037.69
2023-04-16T21:27:34.977Z,100030.63
2023-04-16T21:30:38.432Z,100028.03
2023-04-16T21:33:41.083Z,100023.63
2023-04-16T21:36:44.060Z,100014.94
2023-04-16T21:39:46.440Z,100021.09
2023-04-16T21:42:49.385Z,100022.88
2023-04-16T21:45:54.958Z,100030.63
2023-04-16T21:48:57.885Z,100023.56
2023-04-16T21:52:02.544Z,100025.19
2023-04-16T21:55:06.578Z,100023.34
2023-04-16T21:58:08.926Z,100018.03
2023-04-16T22:01:11.843Z,100011.00
2023-04-16T22:04:14.540Z,100012.78
2023-04-16T22:07:17.464Z,100016.97
2023-04-16T22:10:20.341Z,100010.09
2023-04-16T22:13:25.131Z,100018.75
2023-04-16T22:16:27.758Z,100013.34
2023-04-16T22:19:30.423Z,100021.13
2023-04-16T22:22:33.345Z,100015.03
2023-04-16T22:25:36.029Z,100012.38
2023-04-16T22:28:38.661Z,100003.75
2023-04-16T22:31:41.344Z,99993.25
2023-04-16T22:34:44.082Z,100009.84
2023-04-16T22:37:46.699Z,100000.13
2023-04-16T22:40:49.356Z,99994.81
2023-04-16T22:43:52.565Z,99992.16
2023-04-16T22:46:55.244Z,99993.06
2023-04-16T22:49:57.843Z,100000.00
2023-04-16T22:53:00.432Z,99991.44
2023-04-16T22:56:03.012Z,99997.50
2023-04-16T22:59:06.040Z,99992.31
2023-04-16T23:02:08.603Z,99988.66
2023-04-16T23:05:11.860Z,99987.75
2023-04-16T23:08:14.589Z,99981.53
2023-04-16T23:11:17.325Z,99979.94
2023-04-16T23:14:21.286Z,99972.94
2023-04-16T23:17:24.003Z,99979.78
2023-04-16T23:20:26.640Z,99969.31
2023-04-16T23:23:29.600Z,99977.22
2023-04-16T23:26:32.873Z,99966.91
2023-04-16T23:29:35.449Z,99963.22
2023-04-16T23:32:38.122Z,99961.41
2023-04-16T23:35:40.941Z,99969.22
2023-04-16T23:38:43.519Z,99971.06
2023-04-16T23:41:46.252Z,99963.16
2023-04-16T23:44:48.802Z,99958.00
2023-04-16T23:47:51.523Z,99955.31
2023-04-16T23:50:54.235Z,99955.31
2023-04-16T23:53:56.787Z,99947.34
2023-04-16T23:56:59.376Z,99949.13
